Royal Oak, MI (48067)

5:03 PM EST on February 06, 2016 (GMT -0500)
APRSWXNET | | Change Station
CLOSE
Current Station
Personal Weather Station
Location: Ferndale, MI
Elevation: 649 ft
Nearby Weather Stations

Elev 649 ft 42.46 °N, 83.13 °W | Updated 34 minutes ago

Clear
Clear
39 °F
Feels Like 39 °F
N
0
Wind Variable Wind from SW
Gusts 3.0 mph

Today
High -- | Low -- °F
--% Chance of Precip.
Yesterday
High -- | Low -- °F
Precip. -- in
Pressure 30.16 in
Visibility 10.0 miles
Clouds Mostly Cloudy 7000 ft
Windchill 39 °F
Dew Point 26 °F
Humidity 59%
Rainfall in
Snow Depth Not available.
7:41 AM 5:52 PM
Waning Crescent, 4% visible
METAR KVLL 062155Z AUTO 21008KT 10SM BKN070 04/M06 A3016 RMK AO2 T00351056
Pressure 30.16 in
Visibility 10.0 miles
Clouds Mostly Cloudy 7000 ft
Windchill 39 °F
Dew Point 26 °F
Humidity 59%
Rainfall in
Snow Depth Not available.
7:41 AM 5:52 PM
Waning Crescent, 4% visible
METAR KVLL 062155Z AUTO 21008KT 10SM BKN070 04/M06 A3016 RMK AO2 T00351056

10-Day Weather Forecast

Almanac

Astronomy

Feb. 06, 2016 Rise Set
Actual Time
Civil Twilight
Nautical Twilight
Astronomical Twilight
Moon
Length of Visible Light
Length of Day
Tomorrow will be .
, % of the Moon is Illuminated

Today's Extremes

State Highs State Lows

Community

WunderPhotos

Upload Photos

1,891,082 photos uploaded!

WunderBlog® & News

Nearby

Air Quality

  Air Quality AQ Index Pollutant
Not available.

Snow Depth

Station Depth Elevation

Earthquake Activity

City Distance Mag. Time & Date
Minimum magnitude displayed is 2.5.

Coastal Water Temperatures

Place Temperature

Stations

Nearby Weather Stations

Station Location Temp. Windchill Dew Point Humidity Wind Precip. Elev Updated Type
                   

Watches & Warnings

There are currently no watches in effect.